createdAt,value
2024-01-24T00:00:55.664Z,81.32
2024-01-24T00:01:58.298Z,81.17
2024-01-24T00:03:01.016Z,81.92
2024-01-24T00:04:03.734Z,81.48
2024-01-24T00:05:07.073Z,81.29
2024-01-24T00:06:09.772Z,81.13
2024-01-24T00:07:12.369Z,80.89
2024-01-24T00:08:14.975Z,80.78
2024-01-24T00:09:17.668Z,80.51
2024-01-24T00:10:20.287Z,80.11
2024-01-24T00:11:22.848Z,79.46
2024-01-24T00:12:25.499Z,79.10
2024-01-24T00:13:28.093Z,78.81
2024-01-24T00:14:30.674Z,78.52
2024-01-24T00:15:33.284Z,78.63
2024-01-24T00:16:35.874Z,79.06
2024-01-24T00:17:38.539Z,78.70
2024-01-24T00:18:41.181Z,78.52
2024-01-24T00:19:43.923Z,78.64
2024-01-24T00:20:46.573Z,78.67
2024-01-24T00:21:49.285Z,78.47
2024-01-24T00:22:52.138Z,78.57
2024-01-24T00:23:54.698Z,78.60
2024-01-24T00:24:57.390Z,78.32
2024-01-24T00:26:00.096Z,78.55
2024-01-24T00:27:03.059Z,78.71
2024-01-24T00:28:07.186Z,79.00
2024-01-24T00:29:09.797Z,79.20
2024-01-24T00:30:12.528Z,79.08
2024-01-24T00:31:15.113Z,79.12
2024-01-24T00:32:17.667Z,80.29
2024-01-24T00:33:21.564Z,81.13
2024-01-24T00:34:24.427Z,80.87
2024-01-24T00:35:27.084Z,81.51
2024-01-24T00:36:29.936Z,82.14
2024-01-24T00:37:32.605Z,83.11
2024-01-24T00:38:35.199Z,82.81
2024-01-24T00:39:37.864Z,82.32
2024-01-24T00:40:40.456Z,82.33
2024-01-24T00:41:43.374Z,82.40
2024-01-24T00:42:46.146Z,82.53
2024-01-24T00:43:48.800Z,81.12
2024-01-24T00:44:52.913Z,80.58
2024-01-24T00:45:56.153Z,80.90
2024-01-24T00:46:58.846Z,80.74
2024-01-24T00:48:01.686Z,80.86
2024-01-24T00:49:04.825Z,80.54
2024-01-24T00:50:08.485Z,79.86
2024-01-24T00:51:11.093Z,79.72
2024-01-24T00:52:13.882Z,81.44
2024-01-24T00:53:21.136Z,83.29
2024-01-24T00:54:23.793Z,80.55
2024-01-24T00:55:28.248Z,80.11
2024-01-24T00:56:30.837Z,81.67
2024-01-24T00:57:33.439Z,80.61
2024-01-24T00:58:36.077Z,79.48
2024-01-24T00:59:38.703Z,80.84
2024-01-24T01:00:41.411Z,80.97
2024-01-24T01:01:44.021Z,79.30
2024-01-24T01:02:46.616Z,79.26
2024-01-24T01:03:49.345Z,79.39
2024-01-24T01:04:52.348Z,78.62
2024-01-24T01:05:54.998Z,79.11
2024-01-24T01:06:57.584Z,80.15
2024-01-24T01:08:00.184Z,83.22
2024-01-24T01:09:03.405Z,82.99
2024-01-24T01:10:09.317Z,79.22
2024-01-24T01:11:11.959Z,78.56
2024-01-24T01:12:14.592Z,77.85
2024-01-24T01:13:17.203Z,77.63
2024-01-24T01:14:19.826Z,77.75
2024-01-24T01:15:22.556Z,79.47
2024-01-24T01:16:25.166Z,79.73
2024-01-24T01:17:27.824Z,79.26
2024-01-24T01:18:30.589Z,78.07
2024-01-24T01:19:33.326Z,77.93
2024-01-24T01:20:35.977Z,77.85
2024-01-24T01:21:41.550Z,77.89
2024-01-24T01:22:44.307Z,77.75
2024-01-24T01:23:46.963Z,77.59
2024-01-24T01:24:49.751Z,77.48
2024-01-24T01:25:52.449Z,77.67
2024-01-24T01:26:55.287Z,77.66
2024-01-24T01:27:57.933Z,78.05
2024-01-24T01:29:00.531Z,79.38
2024-01-24T01:30:03.228Z,80.01
2024-01-24T01:31:05.819Z,80.63
2024-01-24T01:32:08.423Z,80.55
2024-01-24T01:33:11.070Z,79.71
2024-01-24T01:34:13.922Z,79.63
2024-01-24T01:35:16.586Z,80.17
2024-01-24T01:36:23.390Z,79.93
2024-01-24T01:37:26.759Z,80.47
2024-01-24T01:38:29.560Z,80.37
2024-01-24T01:39:32.190Z,80.15
2024-01-24T01:40:34.794Z,80.27
2024-01-24T01:41:38.319Z,80.41
2024-01-24T01:42:47.375Z,80.47
2024-01-24T01:43:50.031Z,80.09
2024-01-24T01:44:52.652Z,79.38
2024-01-24T01:45:59.969Z,78.81
2024-01-24T01:47:02.587Z,79.39
2024-01-24T01:48:05.846Z,79.21
2024-01-24T01:49:08.926Z,79.99
2024-01-24T01:50:11.973Z,80.42
2024-01-24T01:51:14.973Z,80.43
2024-01-24T01:52:18.199Z,80.68
2024-01-24T01:53:21.311Z,81.04
2024-01-24T01:54:24.229Z,81.27
2024-01-24T01:55:27.468Z,81.37
2024-01-24T01:56:30.197Z,81.39
2024-01-24T01:57:35.259Z,81.02
2024-01-24T01:58:38.615Z,80.17
2024-01-24T01:59:44.512Z,79.69
2024-01-24T02:00:50.326Z,79.45
2024-01-24T02:01:55.233Z,79.46
2024-01-24T02:02:57.845Z,79.61
2024-01-24T02:04:00.828Z,79.68
2024-01-24T02:05:04.093Z,79.51
2024-01-24T02:06:06.995Z,79.62
2024-01-24T02:07:09.728Z,80.01
2024-01-24T02:08:12.357Z,80.26
2024-01-24T02:09:15.032Z,80.44
2024-01-24T02:10:17.694Z,80.46
2024-01-24T02:11:20.564Z,80.38
2024-01-24T02:12:23.248Z,80.40
2024-01-24T02:13:31.423Z,81.12
2024-01-24T02:14:34.221Z,81.11
2024-01-24T02:15:36.854Z,81.02
2024-01-24T02:16:39.492Z,81.12
2024-01-24T02:17:42.138Z,81.11
2024-01-24T02:18:47.590Z,81.04
2024-01-24T02:19:50.252Z,81.01
2024-01-24T02:20:53.037Z,80.76
2024-01-24T02:21:55.663Z,80.85
2024-01-24T02:22:58.409Z,80.70
2024-01-24T02:24:01.577Z,80.82
2024-01-24T02:25:04.599Z,81.01
2024-01-24T02:26:07.401Z,80.78
2024-01-24T02:27:10.133Z,80.72
2024-01-24T02:28:15.695Z,80.88
2024-01-24T02:29:18.323Z,80.96
2024-01-24T02:30:20.931Z,81.19
2024-01-24T02:31:23.517Z,81.15
2024-01-24T02:32:26.161Z,80.99
2024-01-24T02:33:28.909Z,80.59
2024-01-24T02:34:31.742Z,80.17
2024-01-24T02:35:34.482Z,80.02
2024-01-24T02:36:37.058Z,79.83
2024-01-24T02:37:42.600Z,79.81
2024-01-24T02:38:45.220Z,79.98
2024-01-24T02:39:48.723Z,79.98
2024-01-24T02:40:51.389Z,79.86
2024-01-24T02:41:54.383Z,79.76
2024-01-24T02:42:57.162Z,79.94
2024-01-24T02:43:59.771Z,80.26
2024-01-24T02:45:02.436Z,80.67
2024-01-24T02:46:05.219Z,80.95
2024-01-24T02:47:07.841Z,81.08
2024-01-24T02:48:10.627Z,81.38
2024-01-24T02:49:13.357Z,82.00
2024-01-24T02:50:16.145Z,82.40
2024-01-24T02:51:25.204Z,82.59
2024-01-24T02:52:27.818Z,82.90
2024-01-24T02:53:30.430Z,82.72
2024-01-24T02:54:33.448Z,82.50
2024-01-24T02:55:36.061Z,82.45
2024-01-24T02:56:39.583Z,82.34
2024-01-24T02:57:42.545Z,82.18
2024-01-24T02:58:45.158Z,82.21
2024-01-24T02:59:47.756Z,82.10
2024-01-24T03:00:50.395Z,82.12
2024-01-24T03:01:53.018Z,82.11
2024-01-24T03:02:55.558Z,82.11
2024-01-24T03:03:58.166Z,82.09
2024-01-24T03:05:00.882Z,82.00
2024-01-24T03:06:03.527Z,82.25
2024-01-24T03:07:06.336Z,82.17
2024-01-24T03:08:09.045Z,81.31
2024-01-24T03:09:11.665Z,81.10
2024-01-24T03:10:14.234Z,80.75
2024-01-24T03:11:17.152Z,80.33
2024-01-24T03:12:20.759Z,79.45
2024-01-24T03:13:23.439Z,78.59
2024-01-24T03:14:26.113Z,78.31
2024-01-24T03:15:28.841Z,78.31
2024-01-24T03:16:32.090Z,78.45
2024-01-24T03:17:35.314Z,78.56
2024-01-24T03:18:38.863Z,78.92
2024-01-24T03:19:41.537Z,79.36
2024-01-24T03:20:44.161Z,79.60
2024-01-24T03:21:47.825Z,79.78
2024-01-24T03:22:50.952Z,80.17
2024-01-24T03:23:53.558Z,80.61
2024-01-24T03:24:56.261Z,80.79
2024-01-24T03:25:59.834Z,80.92
2024-01-24T03:27:02.544Z,81.19
2024-01-24T03:28:05.257Z,81.32
2024-01-24T03:29:08.244Z,81.29
2024-01-24T03:30:11.555Z,81.58
2024-01-24T03:31:14.336Z,81.87
2024-01-24T03:32:17.008Z,81.88
2024-01-24T03:33:19.632Z,81.76
2024-01-24T03:34:23.171Z,81.78
2024-01-24T03:35:25.898Z,82.01
2024-01-24T03:36:28.512Z,82.18
2024-01-24T03:37:31.150Z,82.22
2024-01-24T03:38:34.372Z,82.41
2024-01-24T03:39:37.527Z,82.57
2024-01-24T03:40:40.192Z,82.77
2024-01-24T03:41:42.803Z,83.07
2024-01-24T03:42:45.390Z,83.44
2024-01-24T03:43:49.382Z,84.14
2024-01-24T03:44:52.085Z,84.69
2024-01-24T03:45:54.787Z,84.92
2024-01-24T03:46:57.455Z,85.01
2024-01-24T03:48:01.772Z,85.03
2024-01-24T03:49:04.481Z,85.12
2024-01-24T03:50:07.424Z,84.99
2024-01-24T03:51:10.212Z,84.63
2024-01-24T03:52:12.807Z,84.61
2024-01-24T03:53:15.930Z,84.60
2024-01-24T03:54:18.511Z,84.65
2024-01-24T03:55:21.132Z,84.46
2024-01-24T03:56:24.006Z,84.28
2024-01-24T03:57:26.660Z,84.18
2024-01-24T03:58:29.263Z,83.95
2024-01-24T03:59:31.866Z,83.53
2024-01-24T04:00:34.746Z,82.67
2024-01-24T04:01:38.080Z,82.34
2024-01-24T04:02:41.678Z,82.34
2024-01-24T04:03:44.420Z,82.14
2024-01-24T04:04:47.158Z,82.21
2024-01-24T04:05:49.833Z,82.07
2024-01-24T04:06:52.528Z,81.89
2024-01-24T04:07:55.185Z,81.89
2024-01-24T04:08:57.798Z,81.90
2024-01-24T04:10:00.611Z,81.82
2024-01-24T04:11:03.267Z,81.98
2024-01-24T04:12:06.116Z,82.11
2024-01-24T04:13:08.727Z,82.28
2024-01-24T04:14:11.455Z,82.36
2024-01-24T04:15:14.085Z,82.39
2024-01-24T04:16:16.668Z,82.23
2024-01-24T04:17:20.545Z,82.21
2024-01-24T04:18:23.239Z,82.15
2024-01-24T04:19:25.937Z,81.94
2024-01-24T04:20:29.885Z,81.86
2024-01-24T04:21:32.574Z,81.96
2024-01-24T04:22:36.352Z,82.06
2024-01-24T04:23:38.965Z,81.98
2024-01-24T04:24:41.747Z,82.06
2024-01-24T04:25:44.449Z,82.35
2024-01-24T04:26:47.045Z,82.47
2024-01-24T04:27:50.114Z,82.66
2024-01-24T04:28:52.820Z,82.57
2024-01-24T04:29:55.554Z,82.78
2024-01-24T04:30:58.182Z,82.94
2024-01-24T04:32:00.921Z,83.03
2024-01-24T04:33:03.775Z,83.22
2024-01-24T04:34:06.944Z,83.63
2024-01-24T04:35:09.966Z,83.52
2024-01-24T04:36:12.853Z,83.55
2024-01-24T04:37:15.627Z,83.37
2024-01-24T04:38:18.445Z,83.04
2024-01-24T04:39:21.638Z,82.54
2024-01-24T04:40:24.547Z,82.45
2024-01-24T04:41:27.127Z,82.01
2024-01-24T04:42:29.850Z,81.60
2024-01-24T04:43:32.442Z,81.36
2024-01-24T04:44:35.050Z,81.27
2024-01-24T04:45:38.301Z,81.27
2024-01-24T04:46:43.771Z,81.60
2024-01-24T04:47:47.188Z,81.71
2024-01-24T04:48:50.197Z,82.10
2024-01-24T04:49:52.930Z,82.16
2024-01-24T04:50:55.648Z,82.21
2024-01-24T04:51:58.316Z,82.27
2024-01-24T04:53:00.941Z,82.23
2024-01-24T04:54:03.577Z,82.29
2024-01-24T04:55:12.094Z,82.30
2024-01-24T04:56:15.345Z,82.41
2024-01-24T04:57:18.117Z,82.46
2024-01-24T04:58:20.735Z,82.23
2024-01-24T04:59:23.389Z,82.06
2024-01-24T05:00:26.064Z,82.07
2024-01-24T05:01:29.532Z,82.17
2024-01-24T05:02:32.201Z,82.26
2024-01-24T05:03:35.021Z,82.43
2024-01-24T05:04:37.761Z,82.39
2024-01-24T05:05:41.668Z,82.34
2024-01-24T05:06:44.443Z,82.43
2024-01-24T05:07:47.045Z,82.42
2024-01-24T05:08:49.629Z,82.39
2024-01-24T05:09:52.375Z,82.36
2024-01-24T05:10:55.025Z,82.26
2024-01-24T05:11:57.638Z,82.15
2024-01-24T05:13:00.276Z,81.95
2024-01-24T05:14:02.852Z,81.86
2024-01-24T05:15:06.008Z,82.03
2024-01-24T05:16:08.571Z,81.95
2024-01-24T05:17:11.210Z,81.89
2024-01-24T05:18:13.916Z,81.77
2024-01-24T05:19:17.276Z,81.70
2024-01-24T05:20:20.055Z,81.72
2024-01-24T05:21:22.794Z,81.70
2024-01-24T05:22:25.414Z,81.69
2024-01-24T05:23:28.032Z,81.66
2024-01-24T05:24:31.010Z,81.69
2024-01-24T05:25:33.788Z,81.75
2024-01-24T05:26:37.742Z,81.65
2024-01-24T05:27:40.410Z,81.58
2024-01-24T05:28:43.039Z,81.68
2024-01-24T05:29:48.720Z,81.59
2024-01-24T05:30:51.310Z,81.48
2024-01-24T05:31:53.886Z,81.49
2024-01-24T05:32:58.367Z,81.54
2024-01-24T05:34:04.194Z,81.47
2024-01-24T05:35:07.391Z,81.32
2024-01-24T05:36:11.049Z,81.35
2024-01-24T05:37:13.633Z,81.23
2024-01-24T05:38:16.329Z,81.18
2024-01-24T05:39:18.977Z,81.15
2024-01-24T05:40:21.807Z,81.14
2024-01-24T05:41:24.463Z,81.05
2024-01-24T05:42:27.070Z,81.06
2024-01-24T05:44:11.068Z,81.05
2024-01-24T05:45:13.806Z,80.97
2024-01-24T05:46:16.846Z,80.94
2024-01-24T05:47:19.528Z,81.00
2024-01-24T05:48:22.489Z,80.87
2024-01-24T05:49:25.364Z,80.82
2024-01-24T05:50:28.178Z,80.88
2024-01-24T05:51:30.814Z,80.82
2024-01-24T05:52:33.452Z,80.89
2024-01-24T05:53:36.033Z,80.86
2024-01-24T05:54:38.676Z,80.81
2024-01-24T05:55:41.320Z,80.71
2024-01-24T05:56:44.149Z,80.69
2024-01-24T05:57:47.922Z,80.63
2024-01-24T05:58:50.561Z,80.59
2024-01-24T05:59:53.302Z,80.47
2024-01-24T06:00:56.036Z,80.46
2024-01-24T06:01:58.711Z,80.42
2024-01-24T06:03:01.336Z,80.25
2024-01-24T06:04:04.088Z,80.33
2024-01-24T06:05:07.897Z,80.43
2024-01-24T06:06:10.733Z,80.42
2024-01-24T06:07:15.322Z,80.36
2024-01-24T06:08:17.989Z,80.27
2024-01-24T06:09:21.968Z,80.32
2024-01-24T06:10:24.674Z,80.32
2024-01-24T06:11:27.284Z,80.36
2024-01-24T06:12:29.933Z,80.45
2024-01-24T06:13:32.600Z,80.52
2024-01-24T06:14:35.203Z,80.54
2024-01-24T06:15:38.497Z,80.47
2024-01-24T06:16:41.318Z,80.33
2024-01-24T06:17:44.033Z,80.36
2024-01-24T06:18:46.837Z,80.28
2024-01-24T06:19:51.469Z,80.27
2024-01-24T06:20:54.082Z,80.26
2024-01-24T06:21:56.894Z,80.14
2024-01-24T06:22:59.564Z,79.92
2024-01-24T06:24:02.624Z,79.89
2024-01-24T06:25:08.676Z,79.96
2024-01-24T06:26:11.498Z,79.94
2024-01-24T06:27:14.154Z,79.99
2024-01-24T06:28:16.980Z,79.93
2024-01-24T06:30:14.664Z,79.85
2024-01-24T06:30:42.981Z,79.88
2024-01-24T06:31:47.201Z,79.86
2024-01-24T06:32:50.453Z,79.85
2024-01-24T06:33:53.450Z,79.75
2024-01-24T06:34:56.107Z,79.67
2024-01-24T06:35:59.142Z,79.53
2024-01-24T06:37:01.788Z,79.48
2024-01-24T06:38:04.612Z,79.34
2024-01-24T06:39:11.150Z,79.26
2024-01-24T06:40:15.566Z,79.28
2024-01-24T06:41:18.191Z,79.14
2024-01-24T06:42:21.360Z,79.24
2024-01-24T06:43:24.028Z,79.03
2024-01-24T06:44:27.363Z,78.90
2024-01-24T06:45:29.926Z,79.04
2024-01-24T06:46:32.925Z,79.07
2024-01-24T06:47:35.878Z,78.98
2024-01-24T06:48:38.678Z,79.06
2024-01-24T06:49:42.337Z,78.98
2024-01-24T06:50:46.172Z,78.92
2024-01-24T06:51:49.044Z,78.88
2024-01-24T06:52:52.306Z,78.96
2024-01-24T06:53:55.865Z,78.92
2024-01-24T06:54:59.170Z,78.71
2024-01-24T06:56:02.488Z,78.70
2024-01-24T06:57:05.289Z,78.59
2024-01-24T06:58:08.942Z,78.57
2024-01-24T06:59:12.856Z,78.55
2024-01-24T07:00:16.106Z,78.49
2024-01-24T07:01:19.079Z,78.49
2024-01-24T07:02:21.763Z,78.40
2024-01-24T07:03:24.503Z,78.41
2024-01-24T07:04:27.778Z,78.28
2024-01-24T07:05:30.512Z,78.03
2024-01-24T07:06:33.254Z,78.09
2024-01-24T07:07:36.357Z,78.23
2024-01-24T07:08:42.564Z,78.08
2024-01-24T07:09:45.677Z,78.10
2024-01-24T07:10:51.235Z,78.02
2024-01-24T07:11:53.891Z,78.00
2024-01-24T07:12:57.244Z,78.02
2024-01-24T07:13:59.970Z,77.90
2024-01-24T07:15:02.608Z,77.92
2024-01-24T07:16:08.768Z,77.85
2024-01-24T07:17:11.571Z,77.95
2024-01-24T07:18:17.189Z,77.99
2024-01-24T07:19:20.028Z,77.81
2024-01-24T07:20:22.704Z,77.73
2024-01-24T07:21:26.540Z,77.74
2024-01-24T07:22:29.237Z,77.73
2024-01-24T07:23:32.110Z,77.78
2024-01-24T07:24:34.838Z,77.83
2024-01-24T07:25:37.532Z,77.75
2024-01-24T07:26:40.339Z,77.66
2024-01-24T07:27:46.165Z,77.66
2024-01-24T07:28:49.557Z,77.54
2024-01-24T07:29:52.312Z,77.63
2024-01-24T07:30:54.907Z,77.73
2024-01-24T07:31:57.539Z,77.53
2024-01-24T07:33:01.127Z,77.71
2024-01-24T07:34:03.830Z,77.56
2024-01-24T07:35:07.117Z,77.47
2024-01-24T07:36:09.895Z,77.42
2024-01-24T07:37:12.500Z,77.29
2024-01-24T07:38:15.112Z,77.35
2024-01-24T07:39:17.801Z,77.45
2024-01-24T07:40:20.473Z,77.43
2024-01-24T07:41:24.691Z,77.23
2024-01-24T07:42:27.583Z,77.12
2024-01-24T07:43:34.182Z,76.96
2024-01-24T07:44:38.100Z,77.03
2024-01-24T07:45:40.938Z,76.99
2024-01-24T07:46:44.634Z,76.67
2024-01-24T07:47:48.967Z,76.67
2024-01-24T07:48:52.068Z,76.55
2024-01-24T07:49:56.801Z,76.50
2024-01-24T07:50:59.944Z,76.19
2024-01-24T07:52:03.147Z,75.97
2024-01-24T07:53:06.051Z,75.95
2024-01-24T07:54:11.855Z,75.77
2024-01-24T07:55:17.586Z,75.86
2024-01-24T07:56:26.116Z,75.48
2024-01-24T07:57:30.197Z,75.61
2024-01-24T07:58:33.111Z,75.54
2024-01-24T07:59:36.256Z,75.25
2024-01-24T08:00:38.888Z,75.04
2024-01-24T08:01:41.937Z,74.88
2024-01-24T08:02:45.522Z,74.78
2024-01-24T08:03:50.942Z,74.82
2024-01-24T08:04:54.304Z,74.58
2024-01-24T08:05:57.468Z,74.41
2024-01-24T08:07:00.364Z,74.37
2024-01-24T08:08:11.262Z,74.28
2024-01-24T08:09:14.122Z,74.06
2024-01-24T08:10:17.110Z,73.94
2024-01-24T08:11:22.772Z,73.80
2024-01-24T08:12:25.707Z,73.53
2024-01-24T08:13:28.528Z,73.51
2024-01-24T08:14:31.495Z,73.52
2024-01-24T08:15:34.746Z,73.75
2024-01-24T08:16:37.551Z,73.69
2024-01-24T08:17:40.429Z,73.45
2024-01-24T08:18:43.242Z,73.37
2024-01-24T08:19:46.587Z,73.21
2024-01-24T08:20:51.643Z,73.27
2024-01-24T08:21:54.865Z,73.20
2024-01-24T08:22:57.628Z,73.11
2024-01-24T08:24:00.332Z,73.00
2024-01-24T08:25:03.704Z,72.70
2024-01-24T08:26:06.303Z,72.40
2024-01-24T08:27:09.061Z,72.40
2024-01-24T08:28:12.312Z,72.43
2024-01-24T08:29:22.075Z,72.15
2024-01-24T08:30:29.011Z,72.02
2024-01-24T08:31:31.854Z,72.13
2024-01-24T08:32:35.733Z,72.19
2024-01-24T08:33:38.634Z,72.09
2024-01-24T08:34:41.444Z,71.90
2024-01-24T08:35:44.086Z,71.73
2024-01-24T08:36:46.789Z,71.64
2024-01-24T08:37:49.503Z,71.62
2024-01-24T08:38:52.523Z,71.56
2024-01-24T08:39:55.586Z,71.25
2024-01-24T08:40:58.402Z,71.26
2024-01-24T08:42:01.622Z,71.43
2024-01-24T08:43:04.384Z,71.26
2024-01-24T08:44:07.202Z,71.21
2024-01-24T08:45:12.571Z,71.18
2024-01-24T08:46:15.419Z,71.03
2024-01-24T08:47:18.280Z,70.83
2024-01-24T08:48:23.258Z,70.79
2024-01-24T08:49:26.692Z,70.94
2024-01-24T08:50:29.368Z,70.78
2024-01-24T08:51:33.132Z,70.75
2024-01-24T08:52:36.692Z,70.72
2024-01-24T08:53:39.448Z,70.67
2024-01-24T08:54:45.601Z,70.40
2024-01-24T08:55:48.750Z,70.30
2024-01-24T08:56:52.074Z,70.23
2024-01-24T08:57:55.521Z,70.02
2024-01-24T08:58:58.866Z,70.25
2024-01-24T09:00:01.525Z,70.30
2024-01-24T09:01:04.972Z,70.22
2024-01-24T09:02:10.939Z,70.33
2024-01-24T09:03:13.996Z,70.47
2024-01-24T09:04:17.040Z,70.69
2024-01-24T09:05:22.298Z,70.66
2024-01-24T09:06:26.483Z,70.87
2024-01-24T09:07:29.621Z,71.16
2024-01-24T09:08:32.296Z,70.85
2024-01-24T09:09:37.588Z,72.36
2024-01-24T09:10:41.731Z,73.42
2024-01-24T09:11:50.686Z,73.27
2024-01-24T09:12:59.589Z,73.56
2024-01-24T09:14:02.262Z,73.40
2024-01-24T09:15:05.792Z,73.80
2024-01-24T09:16:08.848Z,73.04
2024-01-24T09:17:14.712Z,73.30
2024-01-24T09:18:19.133Z,73.18
2024-01-24T09:19:23.173Z,72.76
2024-01-24T09:20:26.077Z,72.42
2024-01-24T09:21:28.940Z,72.57
2024-01-24T09:22:31.790Z,72.81
2024-01-24T09:23:34.827Z,72.77
2024-01-24T09:24:38.451Z,72.78
2024-01-24T09:25:41.111Z,72.46
2024-01-24T09:26:43.988Z,71.37
2024-01-24T09:27:47.208Z,71.11
2024-01-24T09:28:52.632Z,70.33
2024-01-24T09:29:55.301Z,70.34
2024-01-24T09:30:58.073Z,70.11
2024-01-24T09:32:00.844Z,69.67
2024-01-24T09:33:05.324Z,69.92
2024-01-24T09:34:08.264Z,70.28
2024-01-24T09:35:11.474Z,70.51
2024-01-24T09:36:14.791Z,70.33
2024-01-24T09:37:17.438Z,70.03
2024-01-24T09:38:20.179Z,69.59
2024-01-24T09:39:28.936Z,69.26
2024-01-24T09:40:32.095Z,69.14
2024-01-24T09:41:43.909Z,69.17
2024-01-24T09:42:46.851Z,69.58
2024-01-24T09:43:49.978Z,69.70
2024-01-24T09:44:52.775Z,69.44
2024-01-24T09:45:58.171Z,69.04
2024-01-24T09:47:03.175Z,68.87
2024-01-24T09:48:08.633Z,68.42
2024-01-24T09:49:11.748Z,68.26
2024-01-24T09:50:15.548Z,68.62
2024-01-24T09:51:18.924Z,68.47
2024-01-24T09:52:27.947Z,68.53
2024-01-24T09:53:33.678Z,67.75
2024-01-24T09:54:36.872Z,67.55
2024-01-24T09:55:39.757Z,68.03
2024-01-24T09:56:42.865Z,67.92
2024-01-24T09:57:46.672Z,67.61
2024-01-24T09:58:49.525Z,67.40
2024-01-24T09:59:52.873Z,67.07
2024-01-24T10:00:58.115Z,67.07
2024-01-24T10:02:00.935Z,66.98
2024-01-24T10:03:04.427Z,67.16
2024-01-24T10:04:08.055Z,67.36
2024-01-24T10:05:14.749Z,66.92
2024-01-24T10:06:17.679Z,67.09
2024-01-24T10:07:21.134Z,67.33
2024-01-24T10:08:27.099Z,67.29
2024-01-24T10:09:30.041Z,67.00
2024-01-24T10:10:33.011Z,66.78
2024-01-24T10:11:35.614Z,66.80
2024-01-24T10:13:02.304Z,66.91
2024-01-24T10:14:05.052Z,66.74
2024-01-24T10:15:08.922Z,66.48
2024-01-24T10:16:12.001Z,66.81
2024-01-24T10:17:15.269Z,66.90
2024-01-24T10:18:18.362Z,66.97
2024-01-24T10:19:25.825Z,67.04
2024-01-24T10:20:28.874Z,66.69
2024-01-24T10:21:31.743Z,66.33
2024-01-24T10:22:34.803Z,66.58
2024-01-24T10:23:37.637Z,66.61
2024-01-24T10:24:41.803Z,66.63
2024-01-24T10:25:44.973Z,66.57
2024-01-24T10:26:47.689Z,66.87
2024-01-24T10:27:51.646Z,67.08
2024-01-24T10:28:55.993Z,66.81
2024-01-24T10:30:00.496Z,66.69
2024-01-24T10:31:05.702Z,66.87
2024-01-24T10:32:10.812Z,67.00
2024-01-24T10:33:15.890Z,66.97
2024-01-24T10:34:21.416Z,67.05
2024-01-24T10:35:27.645Z,67.46
2024-01-24T10:36:35.054Z,67.38
2024-01-24T10:37:38.986Z,67.50
2024-01-24T10:38:59.564Z,67.42
2024-01-24T10:40:13.186Z,68.02
2024-01-24T10:41:18.113Z,68.93
2024-01-24T10:42:21.698Z,67.67
2024-01-24T10:43:25.631Z,67.30
2024-01-24T10:44:33.870Z,67.35
2024-01-24T10:45:39.194Z,68.62
2024-01-24T10:46:42.426Z,68.82
2024-01-24T10:47:46.238Z,67.63
2024-01-24T10:48:50.500Z,66.76
2024-01-24T10:49:54.158Z,66.37
2024-01-24T10:50:58.492Z,66.58
2024-01-24T10:52:02.237Z,66.42
2024-01-24T10:53:06.079Z,66.33
2024-01-24T10:54:10.602Z,66.46
2024-01-24T10:55:14.234Z,66.82
2024-01-24T10:56:17.302Z,66.53
2024-01-24T10:57:20.987Z,66.44
2024-01-24T10:58:24.202Z,66.58
2024-01-24T10:59:30.139Z,66.59
2024-01-24T11:00:34.966Z,66.00
2024-01-24T11:01:38.204Z,66.92
2024-01-24T11:02:42.896Z,66.89
2024-01-24T11:03:48.994Z,66.05
2024-01-24T11:04:53.341Z,66.04
2024-01-24T11:06:00.316Z,66.10
2024-01-24T11:07:08.538Z,65.77
2024-01-24T11:08:36.088Z,65.92
2024-01-24T11:10:25.545Z,65.61
2024-01-24T11:11:32.438Z,65.29
2024-01-24T11:12:35.361Z,65.04
2024-01-24T11:13:38.672Z,64.74
2024-01-24T11:14:46.791Z,64.88
2024-01-24T11:15:49.691Z,65.21
2024-01-24T11:16:52.424Z,65.21
2024-01-24T11:18:24.281Z,65.29
2024-01-24T11:19:29.870Z,64.86
2024-01-24T11:20:33.664Z,64.98
2024-01-24T11:21:36.890Z,64.98
2024-01-24T11:22:40.265Z,64.97
2024-01-24T11:23:47.524Z,64.66
2024-01-24T11:24:51.568Z,64.48
2024-01-24T11:25:54.739Z,64.55
2024-01-24T11:26:59.014Z,64.43
2024-01-24T11:28:11.623Z,64.44
2024-01-24T11:30:36.820Z,63.69
2024-01-24T11:31:42.188Z,64.11
2024-01-24T11:32:59.622Z,63.67
2024-01-24T11:34:21.215Z,63.40
2024-01-24T11:35:33.582Z,63.70
2024-01-24T11:36:55.382Z,63.46
2024-01-24T11:38:16.276Z,63.38
2024-01-24T11:39:33.071Z,63.28
2024-01-24T11:40:38.010Z,63.09
2024-01-24T11:41:42.655Z,62.60
2024-01-24T11:42:54.652Z,62.87
2024-01-24T11:43:58.401Z,62.84
2024-01-24T11:45:23.228Z,62.61
2024-01-24T11:46:26.918Z,62.23
2024-01-24T11:47:31.701Z,62.30
2024-01-24T11:48:36.601Z,62.68
2024-01-24T11:49:40.189Z,62.59
2024-01-24T11:50:47.297Z,62.76
2024-01-24T11:52:02.507Z,62.56
2024-01-24T11:53:09.358Z,62.10
2024-01-24T11:54:18.690Z,62.23
2024-01-24T11:55:29.578Z,62.25
2024-01-24T11:56:37.833Z,62.05
2024-01-24T11:57:41.339Z,62.02
2024-01-24T11:58:44.399Z,62.12
2024-01-24T11:59:47.448Z,62.15
2024-01-24T12:01:15.114Z,62.10
2024-01-24T12:02:38.930Z,61.85
2024-01-24T12:03:52.493Z,61.76
2024-01-24T12:04:55.393Z,61.70
2024-01-24T12:05:59.401Z,61.24
2024-01-24T12:07:06.017Z,61.43
2024-01-24T12:08:09.405Z,61.60
2024-01-24T12:09:13.495Z,61.33
2024-01-24T12:10:16.255Z,61.54
2024-01-24T12:11:19.281Z,61.77
2024-01-24T12:12:22.956Z,61.85
2024-01-24T12:13:28.135Z,61.63
2024-01-24T12:14:31.652Z,62.32
2024-01-24T12:15:35.355Z,61.23
2024-01-24T12:16:40.953Z,61.49
2024-01-24T12:17:44.912Z,61.55
2024-01-24T12:18:48.572Z,61.19
2024-01-24T12:19:51.598Z,61.28
2024-01-24T12:20:58.263Z,61.49
2024-01-24T12:22:07.536Z,61.51
2024-01-24T12:23:14.796Z,61.46
2024-01-24T12:24:17.673Z,61.65
2024-01-24T12:25:20.461Z,61.84
2024-01-24T12:26:23.389Z,62.10
2024-01-24T12:27:27.496Z,61.89
2024-01-24T12:28:31.601Z,61.91
2024-01-24T12:29:34.619Z,61.99
2024-01-24T12:30:37.563Z,61.94
2024-01-24T12:31:46.334Z,62.10
2024-01-24T12:32:49.831Z,62.36
2024-01-24T12:33:53.206Z,62.55
2024-01-24T12:34:56.555Z,63.02
2024-01-24T12:36:06.131Z,63.44
2024-01-24T12:37:09.360Z,63.58
2024-01-24T12:38:12.715Z,63.66
2024-01-24T12:39:16.342Z,63.76
2024-01-24T12:40:19.112Z,63.93
2024-01-24T12:41:23.112Z,64.38
2024-01-24T12:42:26.192Z,63.88
2024-01-24T12:43:29.111Z,63.73
2024-01-24T12:44:31.941Z,63.60
2024-01-24T12:45:35.544Z,63.61
2024-01-24T12:46:40.415Z,63.78
2024-01-24T12:47:44.132Z,63.86
2024-01-24T12:48:49.025Z,63.94
2024-01-24T12:49:53.090Z,64.08
2024-01-24T12:50:56.070Z,64.12
2024-01-24T12:51:58.840Z,64.12
2024-01-24T12:53:01.541Z,63.73
2024-01-24T12:54:04.339Z,63.57
2024-01-24T12:55:08.501Z,63.68
2024-01-24T12:56:11.263Z,63.61
2024-01-24T12:57:13.916Z,63.73
2024-01-24T12:58:16.825Z,63.90
2024-01-24T12:59:19.831Z,64.16
2024-01-24T13:00:22.641Z,64.22
2024-01-24T13:01:25.660Z,64.21
2024-01-24T13:02:31.405Z,64.19
2024-01-24T13:03:34.353Z,64.06
2024-01-24T13:04:37.341Z,64.09
2024-01-24T13:05:46.471Z,64.23
2024-01-24T13:06:51.413Z,64.13
2024-01-24T13:07:55.029Z,64.17
2024-01-24T13:08:57.911Z,64.06
2024-01-24T13:10:03.586Z,63.67
2024-01-24T13:11:12.337Z,63.77
2024-01-24T13:12:15.268Z,63.97
2024-01-24T13:13:18.806Z,63.83
2024-01-24T13:14:23.196Z,63.89
2024-01-24T13:15:26.146Z,63.66
2024-01-24T13:16:29.209Z,63.77
2024-01-24T13:17:31.915Z,63.84
2024-01-24T13:18:35.076Z,63.67
2024-01-24T13:19:37.853Z,63.51
2024-01-24T13:20:46.866Z,63.61
2024-01-24T13:21:49.600Z,63.49
2024-01-24T13:22:52.575Z,63.33
2024-01-24T13:23:58.135Z,63.35
2024-01-24T13:25:01.204Z,63.31
2024-01-24T13:26:04.002Z,63.34
2024-01-24T13:27:07.930Z,63.47
2024-01-24T13:28:11.427Z,63.53
2024-01-24T13:29:15.402Z,63.53
2024-01-24T13:30:17.998Z,63.39
2024-01-24T13:31:20.712Z,63.66
2024-01-24T13:32:23.383Z,63.58
2024-01-24T13:33:26.211Z,63.61
2024-01-24T13:34:29.034Z,63.81
2024-01-24T13:35:31.698Z,64.06
2024-01-24T13:36:34.541Z,64.78
2024-01-24T13:37:37.781Z,65.31
2024-01-24T13:38:41.917Z,65.77
2024-01-24T13:39:44.749Z,66.18
2024-01-24T13:40:47.621Z,66.52
2024-01-24T13:41:50.216Z,66.79
2024-01-24T13:42:53.637Z,67.09
2024-01-24T13:43:56.221Z,67.12
2024-01-24T13:44:58.857Z,67.27
2024-01-24T13:46:02.224Z,67.29